Time;durP1;ratioP1;P1;durP2;ratioP2;P2;SDS_P1;SDS_P2;PMS_P1;PMS_P2;Temp;Humidity;BMP_temperature;BMP_pressure;BME280_temperature;BME280_humidity;BME280_pressure;Samples;Min_cycle;Max_cycle;Signal;HPM_P1;HPM_P2
2022/09/25 00:01:38;;;;;;;3.45;2.13;;;16.00;75.00;;;;;;5019733;28;20055;-81
2022/09/25 00:04:04;;;;;;;3.47;1.70;;;16.00;75.00;;;;;;5035568;28;20028;-81
2022/09/25 00:06:31;;;;;;;3.55;1.75;;;16.00;74.90;;;;;;5035786;28;20025;-81
2022/09/25 00:08:59;;;;;;;2.53;1.50;;;16.00;74.80;;;;;;5016162;28;20033;-81
2022/09/25 00:11:27;;;;;;;4.53;1.80;;;16.00;74.70;;;;;;4996426;28;20101;-82
2022/09/25 00:13:54;;;;;;;3.85;2.15;;;16.10;74.70;;;;;;4996358;28;20026;-82
2022/09/25 00:16:23;;;;;;;4.35;1.73;;;16.00;74.50;;;;;;4996597;28;20093;-82
2022/09/25 00:21:34;;;;;;;5.97;1.80;;;16.00;75.00;;;;;;4996400;28;20037;-82
2022/09/25 00:24:03;;;;;;;3.88;1.70;;;16.00;74.60;;;;;;5014791;28;20025;-82
2022/09/25 00:26:31;;;;;;;2.88;1.50;;;16.00;74.80;;;;;;5004925;28;20085;-82
2022/09/25 00:29:00;;;;;;;2.35;1.50;;;16.00;75.10;;;;;;4995269;28;20101;-81
2022/09/25 00:31:26;;;;;;;2.42;1.60;;;16.00;75.30;;;;;;4994782;28;20034;-82
2022/09/25 00:34:04;;;;;;;5.57;2.15;;;16.00;75.50;;;;;;5011371;28;20120;-81
2022/09/25 00:36:30;;;;;;;2.45;1.80;;;15.90;75.70;;;;;;4995748;28;20026;-82
2022/09/25 00:38:57;;;;;;;3.65;1.80;;;15.90;75.40;;;;;;4996182;28;20061;-81
2022/09/25 00:41:24;;;;;;;3.55;2.03;;;15.90;75.50;;;;;;4996607;28;20038;-81
2022/09/25 00:43:55;;;;;;;2.80;1.65;;;15.90;75.80;;;;;;4994662;28;20022;-82
2022/09/25 00:46:40;;;;;;;;;;;15.90;75.50;;;;;;4997060;28;20035;-81
2022/09/25 00:49:15;;;;;;;3.67;1.30;;;15.90;75.70;;;;;;4995391;28;20484;-82
2022/09/25 00:51:55;;;;;;;3.30;1.67;;;15.90;75.80;;;;;;4995835;28;20557;-82
2022/09/25 00:54:33;;;;;;;6.88;1.83;;;15.90;75.90;;;;;;4996006;28;20054;-81
2022/09/25 00:57:09;;;;;;;4.25;1.73;;;15.90;75.80;;;;;;4996002;28;20030;-81
2022/09/25 00:59:42;;;;;;;3.63;1.85;;;15.90;75.80;;;;;;4999823;28;20401;-82
2022/09/25 01:02:12;;;;;;;2.13;1.38;;;15.90;75.60;;;;;;5000261;28;20095;-81
2022/09/25 01:04:40;;;;;;;4.68;1.48;;;15.90;75.80;;;;;;4999855;28;20053;-81
2022/09/25 01:07:08;;;;;;;3.10;1.63;;;15.90;75.90;;;;;;5000143;28;20097;-82
2022/09/25 01:09:34;;;;;;;5.47;1.65;;;15.90;76.00;;;;;;4999754;28;20931;-81
2022/09/25 01:12:00;;;;;;;6.85;1.55;;;15.90;76.10;;;;;;4999674;28;20109;-81
2022/09/25 01:14:27;;;;;;;1.58;1.33;;;15.80;75.90;;;;;;4998650;28;20053;-81
2022/09/25 01:17:01;;;;;;;3.40;1.63;;;15.90;76.00;;;;;;4999920;28;20030;-81
2022/09/25 01:19:58;;;;;;;5.00;1.80;;;15.80;76.00;;;;;;4999801;28;20033;-82
2022/09/25 01:22:33;;;;;;;4.97;2.00;;;15.80;76.10;;;;;;5005443;28;20034;-82
2022/09/25 01:25:58;;;;;;;6.72;1.60;;;15.80;75.80;;;;;;5026930;28;20025;-82
2022/09/25 01:28:28;;;;;;;5.63;1.88;;;15.80;76.20;;;;;;5023501;28;20425;-82
2022/09/25 01:31:01;;;;;;;4.30;1.83;;;15.80;76.40;;;;;;5014793;28;20022;-82
2022/09/25 01:33:35;;;;;;;5.50;1.83;;;15.80;76.30;;;;;;4999237;28;20046;-82
2022/09/25 01:36:46;;;;;;;2.28;1.80;;;15.80;76.40;;;;;;4999670;28;20034;-82
2022/09/25 01:39:20;;;;;;;4.55;2.00;;;15.80;76.30;;;;;;4999136;28;20383;-82
2022/09/25 01:42:15;;;;;;;;;;;;;;;;;;;;;
2022/09/25 01:44:57;;;;;;;5.38;1.73;;;15.80;77.40;;;;;;4998822;28;20117;-81
2022/09/25 01:47:27;;;;;;;3.25;1.70;;;15.80;77.30;;;;;;4998581;28;20014;-82
2022/09/25 01:50:01;;;;;;;5.75;2.30;;;15.80;77.20;;;;;;4999094;28;20034;-82
2022/09/25 01:52:34;;;;;;;4.63;2.40;;;15.80;76.80;;;;;;4999124;28;20092;-82
2022/09/25 01:55:09;;;;;;;5.65;2.20;;;15.80;77.10;;;;;;4999096;28;20061;-82
2022/09/25 01:57:48;;;;;;;5.22;2.22;;;15.80;77.10;;;;;;4998678;28;20033;-81
2022/09/25 02:00:20;;;;;;;4.90;2.35;;;15.80;77.10;;;;;;4999274;28;20030;-81
2022/09/25 02:02:54;;;;;;;8.15;2.65;;;15.70;77.10;;;;;;4998072;28;20102;-81
2022/09/25 02:05:30;;;;;;;5.00;2.00;;;15.80;77.10;;;;;;4998941;28;20065;-82
2022/09/25 02:08:07;;;;;;;5.70;2.08;;;15.80;77.00;;;;;;4997332;28;20022;-82
2022/09/25 02:10:54;;;;;;;7.15;2.20;;;15.80;76.80;;;;;;4998445;28;20019;-81
2022/09/25 02:13:21;;;;;;;5.95;2.40;;;15.70;77.00;;;;;;4998540;28;20030;-82
2022/09/25 02:16:01;;;;;;;5.45;2.17;;;15.80;77.00;;;;;;5013820;28;20026;-81
2022/09/25 02:21:44;;;;;;;5.65;2.38;;;15.80;77.10;;;;;;4998535;28;20061;-82
2022/09/25 02:24:20;;;;;;;3.47;2.13;;;15.70;77.10;;;;;;4983022;28;20126;-82
2022/09/25 02:26:47;;;;;;;3.80;2.35;;;15.70;77.30;;;;;;4998825;28;20034;-81
2022/09/25 02:29:14;;;;;;;6.30;2.50;;;15.70;77.10;;;;;;4998485;28;20040;-82
2022/09/25 02:32:06;;;;;;;8.10;2.97;;;15.70;77.10;;;;;;4998036;28;20517;-83
2022/09/25 02:34:32;;;;;;;7.82;2.47;;;15.70;77.20;;;;;;4977764;28;20046;-81
2022/09/25 02:36:58;;;;;;;4.13;2.72;;;15.70;77.30;;;;;;4998040;28;20023;-82
2022/09/25 02:39:28;;;;;;;4.53;2.95;;;15.70;77.00;;;;;;5013377;28;20035;-81
2022/09/25 02:41:59;;;;;;;7.65;2.83;;;15.70;77.30;;;;;;4996496;28;20019;-81
2022/09/25 02:45:02;;;;;;;4.63;2.63;;;15.60;77.30;;;;;;4997888;28;20054;-82
2022/09/25 02:47:31;;;;;;;4.05;2.78;;;15.70;77.50;;;;;;4997599;28;20097;-82
2022/09/25 02:50:22;;;;;;;7.32;3.05;;;15.60;77.60;;;;;;4997941;28;20506;-84
2022/09/25 02:52:47;;;;;;;;;;;15.70;77.80;;;;;;4998251;28;20034;-81
2022/09/25 02:55:50;;;;;;;6.93;2.78;;;15.70;77.90;;;;;;4996739;28;19960;-83
2022/09/25 02:58:45;;;;;;;4.32;2.80;;;15.70;77.60;;;;;;4931164;28;20061;-83
2022/09/25 03:01:17;;;;;;;6.30;2.85;;;15.70;77.70;;;;;;4997467;28;20060;-84
2022/09/25 03:03:45;;;;;;;5.20;2.92;;;15.50;78.40;;;;;;4998047;28;20030;-81
2022/09/25 03:06:12;;;;;;;6.85;2.78;;;15.60;78.30;;;;;;4997940;28;20030;-83
2022/09/25 03:08:45;;;;;;;4.60;2.88;;;15.60;78.20;;;;;;4997805;28;20027;-81
2022/09/25 03:11:14;;;;;;;4.28;2.55;;;15.50;78.40;;;;;;4997823;28;20433;-82
2022/09/25 03:13:43;;;;;;;6.50;3.10;;;15.60;78.30;;;;;;4996413;28;20494;-81
2022/09/25 03:16:14;;;;;;;2.75;2.30;;;15.60;78.10;;;;;;4995723;28;20040;-82
2022/09/25 03:18:40;;;;;;;3.42;2.13;;;15.60;78.30;;;;;;5012654;28;20034;-81
2022/09/25 03:21:06;;;;;;;5.18;2.88;;;15.60;78.20;;;;;;4996972;28;20529;-82
2022/09/25 03:23:32;;;;;;;5.13;2.80;;;15.50;78.30;;;;;;4995064;28;20023;-81
2022/09/25 03:25:58;;;;;;;3.80;2.63;;;15.50;78.40;;;;;;4996061;28;20058;-82
2022/09/25 03:28:24;;;;;;;5.63;2.30;;;15.50;78.50;;;;;;4997569;28;20026;-82
2022/09/25 03:31:04;;;;;;;5.18;2.13;;;15.50;78.60;;;;;;4997051;28;20509;-82
2022/09/25 03:33:34;;;;;;;5.20;2.40;;;15.50;78.40;;;;;;4996509;28;20394;-82
2022/09/25 03:36:12;;;;;;;7.75;2.42;;;15.50;78.20;;;;;;4995989;28;20026;-81
2022/09/25 03:38:40;;;;;;;2.63;1.92;;;15.50;78.40;;;;;;4995495;28;20097;-82
2022/09/25 03:41:08;;;;;;;3.85;2.25;;;15.60;78.40;;;;;;5012162;28;20025;-82
2022/09/25 03:43:42;;;;;;;5.15;2.40;;;15.50;78.40;;;;;;4995739;28;20031;-81
2022/09/25 03:46:11;;;;;;;4.85;2.30;;;15.50;78.30;;;;;;4996769;28;20069;-81
2022/09/25 03:48:37;;;;;;;4.35;2.30;;;15.50;78.50;;;;;;4995292;28;20034;-82
2022/09/25 03:51:04;;;;;;;5.43;2.30;;;15.50;78.60;;;;;;4996622;28;20096;-82
2022/09/25 03:53:35;;;;;;;4.25;2.35;;;15.50;78.60;;;;;;4996640;28;20026;-82
2022/09/25 03:56:03;;;;;;;6.43;2.50;;;15.50;78.60;;;;;;4997055;28;20026;-82
2022/09/25 03:58:29;;;;;;;4.38;2.38;;;15.50;78.60;;;;;;4996614;28;20459;-81
2022/09/25 04:00:56;;;;;;;6.03;2.15;;;15.50;78.60;;;;;;4996626;28;20049;-82
2022/09/25 04:03:27;;;;;;;3.58;2.00;;;15.50;78.60;;;;;;4995233;28;20525;-82
2022/09/25 04:05:57;;;;;;;3.17;1.70;;;15.50;78.60;;;;;;4997038;28;20446;-82
2022/09/25 04:08:25;;;;;;;6.82;2.30;;;15.50;78.70;;;;;;4996528;28;20038;-83
2022/09/25 04:10:55;;;;;;;2.88;1.77;;;15.50;78.40;;;;;;4995876;28;20473;-82
2022/09/25 04:13:21;;;;;;;3.65;1.75;;;15.50;78.50;;;;;;4996363;28;20030;-82
2022/09/25 04:15:58;;;;;;;3.75;1.77;;;15.50;78.40;;;;;;4996364;28;20109;-82
2022/09/25 04:18:24;;;;;;;3.45;2.13;;;15.50;78.60;;;;;;4996768;28;20039;-82
2022/09/25 04:20:50;;;;;;;5.45;1.88;;;15.50;78.40;;;;;;4996424;28;20042;-82
2022/09/25 04:23:16;;;;;;;4.82;1.70;;;15.50;78.40;;;;;;5008877;28;20037;-82
2022/09/25 04:25:41;;;;;;;4.60;2.08;;;15.50;78.50;;;;;;5004027;28;20169;-83
2022/09/25 04:28:08;;;;;;;5.38;1.80;;;15.50;78.50;;;;;;4995642;28;20097;-83
2022/09/25 04:30:34;;;;;;;3.28;1.90;;;15.50;78.50;;;;;;4996542;28;20033;-82
2022/09/25 04:35:52;;;;;;;5.68;1.80;;;15.50;78.50;;;;;;4996355;28;20137;-82
2022/09/25 04:38:18;;;;;;;2.38;1.55;;;15.50;78.30;;;;;;4995878;28;20150;-82
2022/09/25 04:40:44;;;;;;;3.42;1.60;;;15.50;78.40;;;;;;4996110;28;20019;-81
2022/09/25 04:43:10;;;;;;;3.67;2.05;;;15.50;78.30;;;;;;5013249;28;20034;-82
2022/09/25 04:45:37;;;;;;;3.38;2.28;;;15.50;78.30;;;;;;5013836;28;20073;-82
2022/09/25 04:48:04;;;;;;;5.45;2.33;;;15.40;78.40;;;;;;4995786;28;20027;-82
2022/09/25 04:50:35;;;;;;;3.42;1.95;;;15.40;78.20;;;;;;4996439;28;20478;-82
2022/09/25 04:53:01;;;;;;;4.13;1.98;;;15.50;78.00;;;;;;4996186;28;20596;-82
2022/09/25 04:55:27;;;;;;;3.88;1.90;;;15.50;78.20;;;;;;4994261;28;20072;-82
2022/09/25 04:57:54;;;;;;;2.47;1.80;;;15.40;78.30;;;;;;4995700;28;20030;-82
2022/09/25 05:00:21;;;;;;;5.97;2.05;;;15.50;78.20;;;;;;5011024;28;20033;-81
2022/09/25 05:02:47;;;;;;;4.30;2.20;;;15.40;78.40;;;;;;4992734;28;20398;-81
2022/09/25 05:05:13;;;;;;;3.53;2.00;;;15.40;78.40;;;;;;5023367;28;20030;-81
2022/09/25 05:07:53;;;;;;;4.13;1.63;;;15.40;78.20;;;;;;5015641;28;20037;-81
2022/09/25 05:10:19;;;;;;;2.78;2.05;;;15.40;78.40;;;;;;5006005;28;20022;-82
2022/09/25 05:13:08;;;;;;;4.68;1.80;;;15.30;78.40;;;;;;4995992;28;20073;-81
2022/09/25 05:15:34;;;;;;;5.40;1.75;;;15.40;78.30;;;;;;4996106;28;20029;-81
2022/09/25 05:18:06;;;;;;;2.85;1.83;;;15.30;78.40;;;;;;4995809;28;20030;-81
2022/09/25 05:20:34;;;;;;;2.60;1.77;;;15.40;78.30;;;;;;5009543;28;20026;-82
2022/09/25 05:23:02;;;;;;;4.35;1.92;;;15.30;78.50;;;;;;5014401;28;20464;-81
2022/09/25 05:25:28;;;;;;;5.30;1.60;;;15.30;78.50;;;;;;4996035;28;20029;-81
2022/09/25 05:27:57;;;;;;;2.85;1.70;;;15.30;78.50;;;;;;4995625;28;20022;-82
2022/09/25 05:30:29;;;;;;;8.27;2.03;;;15.30;78.50;;;;;;4998084;28;20030;-82
2022/09/25 05:32:58;;;;;;;5.10;1.75;;;15.30;78.50;;;;;;4997795;28;20037;-81
2022/09/25 05:35:26;;;;;;;4.57;1.67;;;15.30;78.50;;;;;;4997982;28;20104;-81
2022/09/25 05:37:53;;;;;;;4.40;1.48;;;15.30;78.60;;;;;;4997018;28;20112;-81
2022/09/25 05:40:19;;;;;;;2.83;1.70;;;15.30;78.70;;;;;;5015063;28;20026;-81
2022/09/25 05:42:46;;;;;;;3.30;1.65;;;15.30;78.60;;;;;;5009638;28;20025;-82
2022/09/25 05:45:13;;;;;;;4.18;1.55;;;15.30;78.60;;;;;;4997055;28;20455;-81
2022/09/25 05:47:40;;;;;;;3.97;1.80;;;15.30;78.60;;;;;;4999240;28;20113;-81
2022/09/25 05:50:08;;;;;;;4.05;1.60;;;15.30;78.70;;;;;;4999635;28;20129;-81
2022/09/25 05:52:34;;;;;;;4.93;1.73;;;15.30;78.80;;;;;;4999230;28;20042;-81
2022/09/25 05:54:59;;;;;;;2.10;1.50;;;15.30;78.90;;;;;;4998986;28;20477;-81
2022/09/25 05:57:26;;;;;;;4.55;1.38;;;15.30;78.90;;;;;;5016779;28;20033;-81
2022/09/25 05:59:52;;;;;;;2.55;1.30;;;15.30;78.80;;;;;;5002827;28;20409;-81
2022/09/25 06:02:18;;;;;;;3.22;1.67;;;15.30;78.70;;;;;;5016232;28;20021;-81
2022/09/25 06:04:43;;;;;;;10.82;2.08;;;15.30;78.90;;;;;;5016852;28;20097;-81
2022/09/25 06:07:09;;;;;;;3.38;1.60;;;15.30;78.80;;;;;;5013647;28;20041;-81
2022/09/25 06:09:35;;;;;;;2.40;1.50;;;15.30;78.70;;;;;;5015990;28;20056;-80
2022/09/25 06:12:01;;;;;;;2.42;1.45;;;15.30;78.90;;;;;;5014477;28;20032;-84
2022/09/25 06:14:27;;;;;;;2.38;1.60;;;15.30;78.50;;;;;;4999590;28;20416;-84
2022/09/25 06:16:53;;;;;;;5.65;2.83;;;15.30;78.40;;;;;;4998257;28;20116;-83
2022/09/25 06:19:19;;;;;;;4.72;1.65;;;15.30;78.70;;;;;;5015136;28;20026;-84
2022/09/25 06:21:46;;;;;;;5.63;1.98;;;15.30;78.70;;;;;;5015239;28;20095;-81
2022/09/25 06:24:12;;;;;;;3.83;1.70;;;15.40;78.60;;;;;;4997428;28;20018;-83
2022/09/25 06:26:39;;;;;;;4.28;1.67;;;15.40;78.60;;;;;;5014223;28;20109;-80
2022/09/25 06:29:06;;;;;;;3.22;1.73;;;15.40;78.60;;;;;;5012617;28;20045;-79
2022/09/25 06:31:33;;;;;;;5.65;1.55;;;15.40;78.60;;;;;;4997924;28;20017;-79
2022/09/25 06:33:58;;;;;;;5.43;1.60;;;15.40;78.60;;;;;;4996316;28;20168;-79
2022/09/25 06:36:24;;;;;;;3.78;1.40;;;15.40;78.30;;;;;;5013554;28;20045;-82
2022/09/25 06:38:53;;;;;;;5.13;1.52;;;15.40;78.50;;;;;;5003700;28;20041;-83
2022/09/25 06:41:20;;;;;;;4.30;1.52;;;15.40;78.70;;;;;;5016619;28;20022;-78
2022/09/25 06:43:48;;;;;;;2.78;1.80;;;15.50;78.50;;;;;;4998071;28;20038;-78
2022/09/25 06:46:14;;;;;;;5.93;2.33;;;15.50;78.10;;;;;;4997572;28;20061;-78
2022/09/25 06:48:41;;;;;;;8.73;2.38;;;15.50;78.20;;;;;;4997247;28;20042;-78
2022/09/25 06:51:07;;;;;;;3.42;1.38;;;15.50;78.40;;;;;;4998125;28;20026;-79
2022/09/25 06:53:33;;;;;;;3.55;1.27;;;15.60;78.10;;;;;;4997952;28;20027;-83
2022/09/25 06:56:00;;;;;;;5.50;1.73;;;15.60;78.20;;;;;;5016387;28;20033;-84
2022/09/25 06:58:27;;;;;;;5.10;1.42;;;15.70;78.20;;;;;;5016943;28;20037;-82
2022/09/25 07:00:55;;;;;;;7.03;1.90;;;15.70;78.00;;;;;;5000261;28;20054;-82
2022/09/25 07:06:07;;;;;;;5.55;1.60;;;15.80;77.50;;;;;;5015935;28;20032;-79
2022/09/25 07:08:33;;;;;;;3.60;2.08;;;15.80;77.90;;;;;;5016013;28;20430;-86
2022/09/25 07:11:00;;;;;;;4.75;1.60;;;15.80;77.70;;;;;;5011390;28;20030;-80
2022/09/25 07:13:30;;;;;;;3.45;1.60;;;15.80;77.70;;;;;;5014568;28;20505;-80
2022/09/25 07:16:00;;;;;;;4.03;1.75;;;15.80;77.70;;;;;;4997175;28;20472;-78
2022/09/25 07:18:27;;;;;;;3.38;1.70;;;15.90;77.50;;;;;;5007169;28;20064;-82
2022/09/25 07:20:59;;;;;;;3.95;1.73;;;15.90;77.80;;;;;;4997218;28;20053;-77
2022/09/25 07:23:25;;;;;;;5.47;1.98;;;15.90;77.70;;;;;;5014394;28;20596;-77
2022/09/25 07:25:51;;;;;;;6.53;2.15;;;16.00;77.70;;;;;;5013625;28;20057;-76
2022/09/25 07:28:18;;;;;;;3.33;1.88;;;16.00;77.70;;;;;;5013765;28;20068;-80
2022/09/25 07:30:45;;;;;;;5.40;2.15;;;16.10;77.70;;;;;;5014864;28;20032;-78
2022/09/25 07:33:11;;;;;;;2.97;1.75;;;16.20;77.40;;;;;;5013917;28;20026;-79
2022/09/25 07:35:37;;;;;;;4.68;1.83;;;16.20;77.20;;;;;;4996220;28;20563;-79
2022/09/25 07:38:03;;;;;;;3.45;1.65;;;16.30;77.00;;;;;;4992637;28;20046;-79
2022/09/25 07:40:30;;;;;;;4.18;1.58;;;16.30;76.90;;;;;;5012470;28;20069;-79
2022/09/25 07:43:00;;;;;;;4.15;1.70;;;16.30;76.80;;;;;;5028247;28;20022;-79
2022/09/25 07:45:27;;;;;;;6.70;1.75;;;16.30;76.80;;;;;;4993720;28;20387;-81
2022/09/25 07:48:01;;;;;;;5.72;2.13;;;16.40;76.40;;;;;;4995388;28;20022;-80
2022/09/25 07:50:30;;;;;;;1.80;1.23;;;16.40;76.40;;;;;;4995020;28;20030;-79
2022/09/25 07:52:56;;;;;;;7.27;2.13;;;16.40;76.40;;;;;;4988393;28;20014;-81
2022/09/25 07:55:23;;;;;;;6.80;1.90;;;16.50;76.30;;;;;;4993536;28;20719;-84
2022/09/25 07:57:49;;;;;;;4.82;1.55;;;16.50;76.10;;;;;;4993440;28;20040;-82
2022/09/25 08:00:15;;;;;;;4.07;1.50;;;16.50;76.30;;;;;;4989754;28;20061;-81
2022/09/25 08:02:41;;;;;;;4.03;1.40;;;16.60;75.90;;;;;;5027951;28;20034;-83
2022/09/25 08:05:08;;;;;;;4.72;1.83;;;16.60;75.90;;;;;;4992811;28;20054;-82
2022/09/25 08:07:33;;;;;;;4.68;1.65;;;16.60;76.00;;;;;;4976754;28;20029;-84
2022/09/25 08:09:59;;;;;;;2.95;1.42;;;16.70;75.80;;;;;;4977810;28;20106;-82
2022/09/25 08:12:25;;;;;;;2.78;1.50;;;16.60;75.80;;;;;;4994092;28;20034;-83
2022/09/25 08:14:51;;;;;;;6.13;1.77;;;16.60;75.80;;;;;;4976316;28;20034;-80
2022/09/25 08:17:18;;;;;;;5.15;1.80;;;16.50;75.90;;;;;;4996159;28;20038;-82
2022/09/25 08:19:44;;;;;;;4.00;1.60;;;16.50;76.00;;;;;;4995230;28;20113;-80
2022/09/25 08:22:10;;;;;;;4.97;1.70;;;16.50;76.60;;;;;;5006882;28;20116;-84
2022/09/25 08:24:36;;;;;;;6.25;2.13;;;16.50;76.40;;;;;;4989608;28;20101;-83
2022/09/25 08:27:03;;;;;;;6.53;1.45;;;16.60;76.80;;;;;;4993847;28;20022;-83
2022/09/25 08:29:29;;;;;;;4.22;1.58;;;16.60;76.90;;;;;;4991323;28;20029;-86
2022/09/25 08:31:56;;;;;;;4.00;1.30;;;16.70;76.60;;;;;;4988175;28;20045;-86
2022/09/25 08:34:21;;;;;;;6.38;1.65;;;16.90;75.60;;;;;;5020199;28;20034;-83
2022/09/25 08:36:50;;;;;;;8.95;1.63;;;17.00;75.40;;;;;;4990643;28;20098;-82
2022/09/25 08:39:17;;;;;;;6.13;1.13;;;17.20;74.60;;;;;;4991039;28;20066;-80
2022/09/25 08:41:56;;;;;;;4.03;1.48;;;17.20;73.80;;;;;;4991252;28;20781;-81
2022/09/25 08:44:43;;;;;;;2.40;0.80;;;17.40;73.70;;;;;;4988707;28;20406;-82
2022/09/25 08:50:21;;;;;;;4.32;1.27;;;17.60;73.10;;;;;;4994076;28;20101;-83
2022/09/25 08:53:18;;;;;;;2.13;1.00;;;17.60;72.30;;;;;;4980221;28;20023;-84
2022/09/25 08:58:31;;;;;;;3.72;1.23;;;17.80;71.60;;;;;;4976980;28;20121;-82
2022/09/25 09:01:09;;;;;;;4.68;1.08;;;17.80;71.30;;;;;;4978278;28;20034;-82
2022/09/25 09:03:44;;;;;;;4.65;1.08;;;17.80;70.70;;;;;;4979161;28;20081;-82
2022/09/25 09:06:14;;;;;;;4.45;1.23;;;17.80;70.80;;;;;;4967968;28;20152;-82
2022/09/25 09:08:43;;;;;;;2.17;1.10;;;18.10;70.40;;;;;;4977316;28;20038;-82
2022/09/25 09:11:18;;;;;;;4.35;1.17;;;18.20;70.70;;;;;;4974516;28;20070;-82
2022/09/25 09:14:01;;;;;;;5.20;0.95;;;18.30;70.90;;;;;;4975087;28;20106;-82
2022/09/25 09:16:36;;;;;;;4.50;1.17;;;18.30;71.00;;;;;;4996219;28;20031;-82
2022/09/25 09:19:04;;;;;;;5.28;1.30;;;18.30;69.90;;;;;;4948338;28;20057;-82
2022/09/25 09:21:35;;;;;;;3.55;1.13;;;18.30;69.80;;;;;;4972568;28;20023;-81
2022/09/25 09:24:14;;;;;;;3.08;1.05;;;18.20;69.20;;;;;;4971998;28;20032;-82
2022/09/25 09:26:53;;;;;;;1.90;1.00;;;18.10;69.90;;;;;;4960071;29;20035;-81
2022/09/25 09:29:24;;;;;;;3.97;0.98;;;18.10;69.40;;;;;;4975666;28;20094;-81
2022/09/25 09:32:15;;;;;;;3.22;0.95;;;17.90;68.20;;;;;;4960708;28;20494;-82
2022/09/25 09:34:46;;;;;;;3.33;1.08;;;17.80;68.80;;;;;;4960439;28;20039;-82
2022/09/25 09:37:33;;;;;;;7.63;1.08;;;17.90;68.40;;;;;;4978245;28;20035;-82
2022/09/25 09:40:17;;;;;;;4.63;1.00;;;18.00;68.30;;;;;;4976118;28;20126;-82
2022/09/25 09:42:52;;;;;;;4.72;1.10;;;18.20;67.70;;;;;;4982863;28;20027;-82
2022/09/25 09:45:28;;;;;;;4.28;1.05;;;18.30;67.90;;;;;;5004305;28;20041;-82
2022/09/25 09:48:18;;;;;;;3.97;1.23;;;18.20;68.80;;;;;;5033366;28;20053;-82
2022/09/25 09:51:08;;;;;;;4.05;1.10;;;18.20;68.70;;;;;;5005848;28;20117;-82
2022/09/25 09:53:45;;;;;;;4.32;1.13;;;18.20;69.10;;;;;;4994901;28;20033;-83
2022/09/25 09:56:35;;;;;;;3.15;1.10;;;18.30;68.70;;;;;;5017093;28;20026;-82
2022/09/25 09:59:24;;;;;;;3.53;1.20;;;18.50;69.50;;;;;;5027490;28;20595;-82
2022/09/25 10:02:19;;;;;;;3.17;1.20;;;18.80;68.40;;;;;;5006737;28;20058;-82
2022/09/25 10:04:46;;;;;;;4.95;1.00;;;19.10;68.30;;;;;;4959188;28;20038;-82
2022/09/25 10:07:17;;;;;;;1.85;0.93;;;19.10;67.00;;;;;;5008552;28;20034;-83
2022/09/25 10:09:43;;;;;;;3.55;1.13;;;19.00;67.80;;;;;;5017590;28;20664;-83
2022/09/25 10:12:29;;;;;;;3.92;1.05;;;18.80;67.70;;;;;;5015176;28;20034;-82
2022/09/25 10:14:56;;;;;;;5.63;1.30;;;18.70;68.00;;;;;;5015561;28;20109;-82
2022/09/25 10:17:22;;;;;;;3.85;1.58;;;18.70;68.20;;;;;;5009831;28;20046;-82
2022/09/25 10:19:54;;;;;;;5.20;1.10;;;18.80;68.30;;;;;;5016438;28;20024;-82
2022/09/25 10:22:24;;;;;;;3.42;1.42;;;18.80;68.20;;;;;;4998971;28;20021;-80
2022/09/25 10:25:04;;;;;;;3.65;1.40;;;18.80;66.90;;;;;;4995542;28;20089;-82
2022/09/25 10:27:35;;;;;;;2.40;1.20;;;18.70;66.40;;;;;;4990238;28;20014;-88
2022/09/25 10:30:09;;;;;;;5.32;1.90;;;18.60;66.30;;;;;;4980728;28;20268;-78
2022/09/25 10:33:10;;;;;;;5.47;2.03;;;18.60;66.50;;;;;;5013493;28;20486;-79
2022/09/25 10:35:38;;;;;;;3.13;1.50;;;18.70;66.30;;;;;;5011618;28;20092;-81
2022/09/25 10:38:15;;;;;;;3.85;1.50;;;18.70;66.30;;;;;;4990704;28;20034;-80
2022/09/25 10:40:48;;;;;;;3.35;1.17;;;18.70;66.20;;;;;;5012169;28;20044;-78
2022/09/25 10:43:22;;;;;;;3.45;1.25;;;18.60;65.90;;;;;;5030435;28;20029;-81
2022/09/25 10:45:52;;;;;;;3.05;1.23;;;18.50;66.10;;;;;;5011956;28;20449;-86
2022/09/25 10:51:19;;;;;;;6.45;2.15;;;18.50;66.70;;;;;;5015222;28;20040;-84
2022/09/25 10:53:47;;;;;;;5.70;1.52;;;18.50;66.50;;;;;;4995333;28;20030;-82
2022/09/25 10:56:21;;;;;;;5.43;2.22;;;18.50;65.70;;;;;;5015724;28;20080;-84
2022/09/25 10:58:56;;;;;;;4.38;1.63;;;18.50;66.10;;;;;;5013890;28;20125;-79
2022/09/25 11:01:39;;;;;;;2.72;1.20;;;18.50;65.80;;;;;;5017030;28;20025;-77
2022/09/25 11:04:16;;;;;;;8.10;1.98;;;18.50;65.00;;;;;;5013771;28;20481;-77
2022/09/25 11:06:53;;;;;;;4.72;1.50;;;18.60;65.40;;;;;;5017287;28;20031;-78
2022/09/25 11:09:24;;;;;;;4.38;1.30;;;18.70;65.60;;;;;;5007881;28;20034;-78
2022/09/25 11:11:53;;;;;;;3.33;1.20;;;18.90;64.40;;;;;;5011859;28;20026;-77
2022/09/25 11:14:31;;;;;;;3.47;1.02;;;19.00;64.30;;;;;;5015917;28;20076;-77
2022/09/25 11:16:58;;;;;;;4.00;1.30;;;19.10;63.00;;;;;;4997593;28;20117;-79
2022/09/25 11:19:31;;;;;;;6.43;1.73;;;19.30;63.00;;;;;;5003882;28;20022;-77
2022/09/25 11:22:15;;;;;;;3.00;1.20;;;19.50;63.10;;;;;;5012987;28;20034;-78
2022/09/25 11:25:10;;;;;;;5.60;1.17;;;19.70;63.10;;;;;;4998539;28;20101;-76
2022/09/25 11:27:47;;;;;;;3.22;0.90;;;19.80;63.60;;;;;;5031855;28;20030;-77
2022/09/25 11:30:17;;;;;;;1.65;0.80;;;20.10;61.20;;;;;;5004072;28;20054;-80
2022/09/25 11:33:11;;;;;;;3.63;0.80;;;20.10;61.40;;;;;;5000968;28;20082;-84
2022/09/25 11:36:01;;;;;;;3.85;0.85;;;20.20;60.90;;;;;;5012089;28;20037;-79
2022/09/25 11:41:47;;;;;;;2.03;0.85;;;20.30;60.30;;;;;;5010573;28;20037;-79
2022/09/25 11:44:56;;;;;;;0.75;0.50;;;20.20;60.00;;;;;;5010507;28;20014;-78
2022/09/25 11:47:35;;;;;;;3.53;1.00;;;20.20;60.60;;;;;;5009869;28;20033;-78
2022/09/25 11:50:02;;;;;;;2.38;0.90;;;20.10;59.70;;;;;;5009500;28;20661;-78
2022/09/25 11:52:39;;;;;;;2.25;0.82;;;20.00;59.20;;;;;;4995101;28;20030;-78
2022/09/25 11:55:23;;;;;;;1.33;0.57;;;20.00;60.10;;;;;;5017333;28;20030;-79
2022/09/25 11:58:28;;;;;;;1.30;0.70;;;19.90;60.10;;;;;;5013113;28;20437;-78
2022/09/25 12:01:23;;;;;;;1.88;0.75;;;19.90;60.20;;;;;;5005678;28;20563;-78
2022/09/25 12:03:58;;;;;;;2.58;0.60;;;19.90;60.00;;;;;;5007853;28;20482;-78
2022/09/25 12:07:08;;;;;;;1.48;0.70;;;19.80;60.60;;;;;;5006560;28;20064;-78
2022/09/25 12:09:36;;;;;;;2.40;0.60;;;19.80;61.00;;;;;;4972684;28;20069;-79
2022/09/25 12:12:23;;;;;;;1.20;0.50;;;19.70;60.40;;;;;;4984983;28;20056;-78
2022/09/25 12:14:55;;;;;;;1.63;0.63;;;19.70;61.20;;;;;;5010383;28;20401;-78
2022/09/25 12:17:26;;;;;;;0.77;0.50;;;19.70;60.70;;;;;;5010574;28;20030;-78
2022/09/25 12:20:03;;;;;;;1.55;0.50;;;19.70;61.30;;;;;;5007064;28;20081;-78
2022/09/25 12:22:47;;;;;;;2.03;0.52;;;19.70;60.90;;;;;;5011947;28;20022;-78
2022/09/25 12:25:48;;;;;;;1.77;0.60;;;19.60;60.70;;;;;;4994740;28;20026;-78
2022/09/25 12:28:35;;;;;;;3.40;0.52;;;19.40;60.40;;;;;;5012867;28;20080;-78
2022/09/25 12:31:37;;;;;;;1.50;0.70;;;19.50;60.80;;;;;;5014252;28;20041;-78
2022/09/25 12:34:36;;;;;;;2.70;0.75;;;19.40;60.40;;;;;;4978468;28;20014;-78
2022/09/25 12:37:24;;;;;;;2.75;0.73;;;19.50;60.20;;;;;;5012239;28;20034;-79
2022/09/25 12:39:57;;;;;;;2.80;0.60;;;19.60;60.80;;;;;;5009168;28;20506;-79
2022/09/25 12:42:25;;;;;;;2.38;0.90;;;19.60;60.50;;;;;;4985796;28;20029;-79
2022/09/25 12:44:57;;;;;;;2.40;0.70;;;19.70;60.00;;;;;;4994945;28;20064;-79
2022/09/25 12:47:32;;;;;;;1.25;0.57;;;19.70;59.50;;;;;;5013873;28;20117;-79
2022/09/25 12:50:14;;;;;;;2.88;0.60;;;19.80;59.50;;;;;;5007885;28;20083;-81
2022/09/25 12:52:43;;;;;;;2.70;0.57;;;19.80;59.40;;;;;;4999745;28;20038;-79
2022/09/25 12:55:13;;;;;;;1.75;0.50;;;19.80;59.00;;;;;;5016229;28;20509;-79
2022/09/25 12:57:47;;;;;;;0.60;0.40;;;19.80;58.60;;;;;;5014425;28;20479;-80
2022/09/25 13:00:27;;;;;;;1.73;0.60;;;19.90;58.90;;;;;;5000896;28;20424;-80
2022/09/25 13:03:18;;;;;;;2.90;0.60;;;19.90;59.00;;;;;;5017326;28;20034;-78
2022/09/25 13:05:53;;;;;;;1.58;0.55;;;19.90;59.40;;;;;;5012269;28;20040;-78
2022/09/25 13:08:26;;;;;;;3.90;0.77;;;19.90;58.80;;;;;;5020118;28;20030;-78
2022/09/25 13:10:57;;;;;;;2.28;0.77;;;20.00;59.30;;;;;;5021120;28;20026;-78
2022/09/25 13:13:26;;;;;;;2.63;1.15;;;19.90;59.20;;;;;;5000168;28;20109;-77
2022/09/25 13:16:00;;;;;;;1.50;0.73;;;19.80;58.60;;;;;;5000052;28;20032;-78
2022/09/25 13:18:28;;;;;;;0.80;0.50;;;19.90;59.10;;;;;;5015883;28;20448;-78
2022/09/25 13:21:03;;;;;;;2.53;0.60;;;19.90;59.30;;;;;;4999595;28;20163;-78
2022/09/25 13:23:35;;;;;;;2.38;0.90;;;19.90;59.90;;;;;;5017759;28;20032;-78
2022/09/25 13:26:29;;;;;;;4.72;0.82;;;19.90;60.60;;;;;;4999408;28;20058;-78
2022/09/25 13:29:26;;;;;;;2.25;0.75;;;19.90;61.00;;;;;;5013326;28;20041;-78
2022/09/25 13:32:15;;;;;;;3.83;0.70;;;19.90;61.10;;;;;;5000355;28;20026;-79
2022/09/25 13:34:41;;;;;;;2.25;0.80;;;20.00;61.10;;;;;;4995808;28;20074;-78
2022/09/25 13:37:10;;;;;;;5.63;0.80;;;20.00;61.40;;;;;;5013488;28;20026;-79
2022/09/25 13:42:48;;;;;;;1.17;0.52;;;20.10;60.00;;;;;;5017862;28;20060;-78
2022/09/25 13:45:33;;;;;;;2.10;0.63;;;20.20;59.70;;;;;;4999675;28;20034;-78